sensor_id;sensor_type;location;lat;lon;timestamp;temperature;humidity
4673;DHT22;61885;53.560;9.940;2023-02-07T00:02:18;0.10;99.90
4673;DHT22;61885;53.560;9.940;2023-02-07T00:04:49;0.00;99.90
4673;DHT22;61885;53.560;9.940;2023-02-07T00:07:19;-0.30;99.90
4673;DHT22;61885;53.560;9.940;2023-02-07T00:09:53;-0.10;99.90
4673;DHT22;61885;53.560;9.940;2023-02-07T00:12:25;-0.10;99.90
4673;DHT22;61885;53.560;9.940;2023-02-07T00:14:55;-0.10;99.90
4673;DHT22;61885;53.560;9.940;2023-02-07T00:17:29;-0.10;99.90
4673;DHT22;61885;53.560;9.940;2023-02-07T00:19:59;-0.10;99.90
4673;DHT22;61885;53.560;9.940;2023-02-07T00:22:30;0.00;99.90
4673;DHT22;61885;53.560;9.940;2023-02-07T00:25:03;0.10;99.90
4673;DHT22;61885;53.560;9.940;2023-02-07T00:27:32;0.10;99.90
4673;DHT22;61885;53.560;9.940;2023-02-07T00:30:05;0.10;99.90
4673;DHT22;61885;53.560;9.940;2023-02-07T00:32:36;0.10;99.90
4673;DHT22;61885;53.560;9.940;2023-02-07T00:35:07;0.00;99.90
4673;DHT22;61885;53.560;9.940;2023-02-07T00:37:37;0.00;99.90
4673;DHT22;61885;53.560;9.940;2023-02-07T00:40:10;-0.10;99.90
4673;DHT22;61885;53.560;9.940;2023-02-07T00:42:40;-0.10;99.90
4673;DHT22;61885;53.560;9.940;2023-02-07T00:45:10;-0.20;99.90
4673;DHT22;61885;53.560;9.940;2023-02-07T00:47:39;-0.20;99.90
4673;DHT22;61885;53.560;9.940;2023-02-07T00:50:09;-0.20;99.90
4673;DHT22;61885;53.560;9.940;2023-02-07T00:52:40;-0.30;99.90
4673;DHT22;61885;53.560;9.940;2023-02-07T00:55:13;-0.30;99.90
4673;DHT22;61885;53.560;9.940;2023-02-07T00:57:43;-0.30;99.90
4673;DHT22;61885;53.560;9.940;2023-02-07T01:00:13;-0.20;99.90
4673;DHT22;61885;53.560;9.940;2023-02-07T01:02:43;-0.30;99.90
4673;DHT22;61885;53.560;9.940;2023-02-07T01:05:13;-0.30;99.90
4673;DHT22;61885;53.560;9.940;2023-02-07T01:07:44;-0.30;99.90
4673;DHT22;61885;53.560;9.940;2023-02-07T01:10:19;-0.30;99.90
4673;DHT22;61885;53.560;9.940;2023-02-07T01:12:51;-0.30;99.90
4673;DHT22;61885;53.560;9.940;2023-02-07T01:15:21;-0.30;99.90
4673;DHT22;61885;53.560;9.940;2023-02-07T01:17:51;-0.30;99.90
4673;DHT22;61885;53.560;9.940;2023-02-07T01:20:21;-0.20;99.90
4673;DHT22;61885;53.560;9.940;2023-02-07T01:22:54;-0.10;99.90
4673;DHT22;61885;53.560;9.940;2023-02-07T01:25:27;-0.10;99.90
4673;DHT22;61885;53.560;9.940;2023-02-07T01:27:56;-0.20;99.90
4673;DHT22;61885;53.560;9.940;2023-02-07T01:30:26;-0.20;99.90
4673;DHT22;61885;53.560;9.940;2023-02-07T01:32:57;-0.20;99.90
4673;DHT22;61885;53.560;9.940;2023-02-07T01:35:27;-0.20;99.90
4673;DHT22;61885;53.560;9.940;2023-02-07T01:37:59;-0.30;99.90
4673;DHT22;61885;53.560;9.940;2023-02-07T01:40:34;-0.30;99.90
4673;DHT22;61885;53.560;9.940;2023-02-07T01:43:04;-0.30;99.90
4673;DHT22;61885;53.560;9.940;2023-02-07T01:45:37;-0.30;99.90
4673;DHT22;61885;53.560;9.940;2023-02-07T01:48:10;-0.30;99.90
4673;DHT22;61885;53.560;9.940;2023-02-07T01:50:43;-0.30;99.90
4673;DHT22;61885;53.560;9.940;2023-02-07T01:53:19;-0.40;99.90
4673;DHT22;61885;53.560;9.940;2023-02-07T01:55:59;-0.50;99.90
4673;DHT22;61885;53.560;9.940;2023-02-07T01:58:31;-0.50;99.90
4673;DHT22;61885;53.560;9.940;2023-02-07T02:01:09;-0.50;99.90
4673;DHT22;61885;53.560;9.940;2023-02-07T02:03:43;-0.50;99.90
4673;DHT22;61885;53.560;9.940;2023-02-07T02:06:14;-0.50;99.90
4673;DHT22;61885;53.560;9.940;2023-02-07T02:08:48;-0.60;99.90
4673;DHT22;61885;53.560;9.940;2023-02-07T02:11:35;-0.60;99.90
4673;DHT22;61885;53.560;9.940;2023-02-07T02:14:13;-0.70;99.90
4673;DHT22;61885;53.560;9.940;2023-02-07T02:16:55;-0.70;99.90
4673;DHT22;61885;53.560;9.940;2023-02-07T02:23:02;-0.70;99.90
4673;DHT22;61885;53.560;9.940;2023-02-07T02:25:54;-0.60;99.90
4673;DHT22;61885;53.560;9.940;2023-02-07T02:34:43;-0.80;99.90
4673;DHT22;61885;53.560;9.940;2023-02-07T02:37:24;-0.80;99.90
4673;DHT22;61885;53.560;9.940;2023-02-07T02:40:03;-0.80;99.90
4673;DHT22;61885;53.560;9.940;2023-02-07T02:42:38;-0.70;99.90
4673;DHT22;61885;53.560;9.940;2023-02-07T02:45:14;-0.60;99.90
4673;DHT22;61885;53.560;9.940;2023-02-07T02:47:47;-0.70;99.90
4673;DHT22;61885;53.560;9.940;2023-02-07T02:50:23;-0.70;99.90
4673;DHT22;61885;53.560;9.940;2023-02-07T02:52:53;-0.70;99.90
4673;DHT22;61885;53.560;9.940;2023-02-07T02:58:24;-0.80;99.90
4673;DHT22;61885;53.560;9.940;2023-02-07T03:01:05;-0.80;99.90
4673;DHT22;61885;53.560;9.940;2023-02-07T03:04:08;-0.80;99.90
4673;DHT22;61885;53.560;9.940;2023-02-07T03:07:00;-0.70;99.90
4673;DHT22;61885;53.560;9.940;2023-02-07T03:09:36;-0.80;99.90
4673;DHT22;61885;53.560;9.940;2023-02-07T03:12:16;-0.80;99.90
4673;DHT22;61885;53.560;9.940;2023-02-07T03:14:53;-0.80;99.90
4673;DHT22;61885;53.560;9.940;2023-02-07T03:17:33;-0.80;99.90
4673;DHT22;61885;53.560;9.940;2023-02-07T03:20:09;-0.90;99.90
4673;DHT22;61885;53.560;9.940;2023-02-07T03:22:43;-0.90;99.90
4673;DHT22;61885;53.560;9.940;2023-02-07T03:25:15;-0.80;99.90
4673;DHT22;61885;53.560;9.940;2023-02-07T03:27:46;-0.80;99.90
4673;DHT22;61885;53.560;9.940;2023-02-07T03:30:22;-0.80;99.90
4673;DHT22;61885;53.560;9.940;2023-02-07T03:32:56;-0.90;99.90
4673;DHT22;61885;53.560;9.940;2023-02-07T03:35:32;-0.90;99.90
4673;DHT22;61885;53.560;9.940;2023-02-07T03:38:09;-0.90;99.90
4673;DHT22;61885;53.560;9.940;2023-02-07T03:40:43;-1.00;99.90
4673;DHT22;61885;53.560;9.940;2023-02-07T03:43:23;-1.00;99.90
4673;DHT22;61885;53.560;9.940;2023-02-07T03:45:54;-1.00;99.90
4673;DHT22;61885;53.560;9.940;2023-02-07T03:48:24;-1.00;99.90
4673;DHT22;61885;53.560;9.940;2023-02-07T03:50:55;-1.00;99.90
4673;DHT22;61885;53.560;9.940;2023-02-07T03:53:28;-1.10;99.90
4673;DHT22;61885;53.560;9.940;2023-02-07T03:55:57;-1.10;99.90
4673;DHT22;61885;53.560;9.940;2023-02-07T03:58:27;-1.10;99.90
4673;DHT22;61885;53.560;9.940;2023-02-07T04:00:57;-1.20;99.90
4673;DHT22;61885;53.560;9.940;2023-02-07T04:03:29;-1.20;99.90
4673;DHT22;61885;53.560;9.940;2023-02-07T04:06:00;-1.20;99.90
4673;DHT22;61885;53.560;9.940;2023-02-07T04:08:35;-1.20;99.90
4673;DHT22;61885;53.560;9.940;2023-02-07T04:11:06;-1.20;99.90
4673;DHT22;61885;53.560;9.940;2023-02-07T04:13:35;-1.20;99.90
4673;DHT22;61885;53.560;9.940;2023-02-07T04:16:07;-1.10;99.90
4673;DHT22;61885;53.560;9.940;2023-02-07T04:18:37;-1.10;99.90
4673;DHT22;61885;53.560;9.940;2023-02-07T04:21:07;-1.10;99.90
4673;DHT22;61885;53.560;9.940;2023-02-07T04:23:40;-1.20;99.90
4673;DHT22;61885;53.560;9.940;2023-02-07T04:26:09;-1.30;99.90
4673;DHT22;61885;53.560;9.940;2023-02-07T04:28:39;-1.30;99.90
4673;DHT22;61885;53.560;9.940;2023-02-07T04:31:09;-1.20;99.90
4673;DHT22;61885;53.560;9.940;2023-02-07T04:33:38;-1.20;99.90
4673;DHT22;61885;53.560;9.940;2023-02-07T04:36:10;-1.10;99.90
4673;DHT22;61885;53.560;9.940;2023-02-07T04:38:45;-1.20;99.90
4673;DHT22;61885;53.560;9.940;2023-02-07T04:41:15;-1.20;99.90
4673;DHT22;61885;53.560;9.940;2023-02-07T04:43:45;-1.20;99.90
4673;DHT22;61885;53.560;9.940;2023-02-07T04:46:15;-1.20;99.90
4673;DHT22;61885;53.560;9.940;2023-02-07T04:48:46;-1.20;99.90
4673;DHT22;61885;53.560;9.940;2023-02-07T04:51:16;-1.20;99.90
4673;DHT22;61885;53.560;9.940;2023-02-07T04:53:49;-1.20;99.90
4673;DHT22;61885;53.560;9.940;2023-02-07T04:56:18;-1.20;99.90
4673;DHT22;61885;53.560;9.940;2023-02-07T04:58:49;-1.20;99.90
4673;DHT22;61885;53.560;9.940;2023-02-07T05:01:19;-1.20;99.90
4673;DHT22;61885;53.560;9.940;2023-02-07T05:03:49;-1.30;99.90
4673;DHT22;61885;53.560;9.940;2023-02-07T05:06:18;-1.30;99.90
4673;DHT22;61885;53.560;9.940;2023-02-07T05:08:51;-1.40;99.90
4673;DHT22;61885;53.560;9.940;2023-02-07T05:11:21;-1.40;99.90
4673;DHT22;61885;53.560;9.940;2023-02-07T05:13:55;-1.50;99.90
4673;DHT22;61885;53.560;9.940;2023-02-07T05:16:25;-1.50;99.90
4673;DHT22;61885;53.560;9.940;2023-02-07T05:18:55;-1.50;99.90
4673;DHT22;61885;53.560;9.940;2023-02-07T05:21:24;-1.50;99.90
4673;DHT22;61885;53.560;9.940;2023-02-07T05:23:57;-1.60;99.90
4673;DHT22;61885;53.560;9.940;2023-02-07T05:26:26;-1.60;99.90
4673;DHT22;61885;53.560;9.940;2023-02-07T05:28:56;-1.50;99.90
4673;DHT22;61885;53.560;9.940;2023-02-07T05:31:26;-1.50;99.90
4673;DHT22;61885;53.560;9.940;2023-02-07T05:34:08;-0.40;99.90
4673;DHT22;61885;53.560;9.940;2023-02-07T05:36:38;-1.00;99.90
4673;DHT22;61885;53.560;9.940;2023-02-07T05:39:10;-1.30;99.90
4673;DHT22;61885;53.560;9.940;2023-02-07T05:41:40;-1.30;99.90
4673;DHT22;61885;53.560;9.940;2023-02-07T05:44:12;-1.40;99.90
4673;DHT22;61885;53.560;9.940;2023-02-07T05:46:41;-1.60;99.90
4673;DHT22;61885;53.560;9.940;2023-02-07T05:49:13;-1.50;99.90
4673;DHT22;61885;53.560;9.940;2023-02-07T05:51:43;-1.50;99.90
4673;DHT22;61885;53.560;9.940;2023-02-07T05:54:16;-1.50;99.90
4673;DHT22;61885;53.560;9.940;2023-02-07T05:56:46;-1.50;99.90
4673;DHT22;61885;53.560;9.940;2023-02-07T05:59:16;-1.50;99.90
4673;DHT22;61885;53.560;9.940;2023-02-07T06:01:46;-1.50;99.90
4673;DHT22;61885;53.560;9.940;2023-02-07T06:04:16;-0.60;99.90
4673;DHT22;61885;53.560;9.940;2023-02-07T06:06:46;-1.50;99.90
4673;DHT22;61885;53.560;9.940;2023-02-07T06:09:18;-1.50;99.90
4673;DHT22;61885;53.560;9.940;2023-02-07T06:11:48;-1.60;99.90
4673;DHT22;61885;53.560;9.940;2023-02-07T06:14:21;-1.70;99.90
4673;DHT22;61885;53.560;9.940;2023-02-07T06:16:52;-1.70;99.90
4673;DHT22;61885;53.560;9.940;2023-02-07T06:19:22;-1.60;99.90
4673;DHT22;61885;53.560;9.940;2023-02-07T06:21:54;-1.50;99.90
4673;DHT22;61885;53.560;9.940;2023-02-07T06:24:35;-1.40;99.90
4673;DHT22;61885;53.560;9.940;2023-02-07T06:27:05;-1.40;99.90
4673;DHT22;61885;53.560;9.940;2023-02-07T06:29:35;-1.30;99.90
4673;DHT22;61885;53.560;9.940;2023-02-07T06:32:08;-1.30;99.90
4673;DHT22;61885;53.560;9.940;2023-02-07T06:34:38;-1.40;99.90
4673;DHT22;61885;53.560;9.940;2023-02-07T06:37:07;-1.30;99.90
4673;DHT22;61885;53.560;9.940;2023-02-07T06:39:41;-1.50;99.90
4673;DHT22;61885;53.560;9.940;2023-02-07T06:42:13;-1.50;99.90
4673;DHT22;61885;53.560;9.940;2023-02-07T06:44:44;-1.40;99.90
4673;DHT22;61885;53.560;9.940;2023-02-07T06:47:14;-1.30;99.90
4673;DHT22;61885;53.560;9.940;2023-02-07T06:49:46;-1.20;99.90
4673;DHT22;61885;53.560;9.940;2023-02-07T06:52:16;-1.50;99.90
4673;DHT22;61885;53.560;9.940;2023-02-07T06:54:53;1.90;99.90
4673;DHT22;61885;53.560;9.940;2023-02-07T06:57:23;4.00;99.90
4673;DHT22;61885;53.560;9.940;2023-02-07T06:59:56;4.90;99.90
4673;DHT22;61885;53.560;9.940;2023-02-07T07:02:29;4.00;99.90
4673;DHT22;61885;53.560;9.940;2023-02-07T07:05:01;1.60;99.90
4673;DHT22;61885;53.560;9.940;2023-02-07T07:07:32;0.40;99.90
4673;DHT22;61885;53.560;9.940;2023-02-07T07:10:05;-0.40;99.90
4673;DHT22;61885;53.560;9.940;2023-02-07T07:12:37;-0.70;99.90
4673;DHT22;61885;53.560;9.940;2023-02-07T07:15:08;-0.90;99.90
4673;DHT22;61885;53.560;9.940;2023-02-07T07:17:39;-1.10;99.90
4673;DHT22;61885;53.560;9.940;2023-02-07T07:20:10;-1.20;99.90
4673;DHT22;61885;53.560;9.940;2023-02-07T07:22:40;-1.20;99.90
4673;DHT22;61885;53.560;9.940;2023-02-07T07:25:12;-1.20;99.90
4673;DHT22;61885;53.560;9.940;2023-02-07T07:27:41;-1.20;99.90
4673;DHT22;61885;53.560;9.940;2023-02-07T07:30:12;-1.20;99.90
4673;DHT22;61885;53.560;9.940;2023-02-07T07:32:42;-1.20;99.90
4673;DHT22;61885;53.560;9.940;2023-02-07T07:35:12;-1.30;99.90
4673;DHT22;61885;53.560;9.940;2023-02-07T07:37:41;-1.20;99.90
4673;DHT22;61885;53.560;9.940;2023-02-07T07:40:15;-1.10;99.90
4673;DHT22;61885;53.560;9.940;2023-02-07T07:42:45;-1.20;99.90
4673;DHT22;61885;53.560;9.940;2023-02-07T07:45:15;-1.10;99.90
4673;DHT22;61885;53.560;9.940;2023-02-07T07:47:45;-1.10;99.90
4673;DHT22;61885;53.560;9.940;2023-02-07T07:50:15;-1.10;99.90
4673;DHT22;61885;53.560;9.940;2023-02-07T07:52:45;-1.10;99.90
4673;DHT22;61885;53.560;9.940;2023-02-07T07:55:17;-1.10;99.90
4673;DHT22;61885;53.560;9.940;2023-02-07T07:57:48;-1.10;99.90
4673;DHT22;61885;53.560;9.940;2023-02-07T08:00:18;-1.00;99.90
4673;DHT22;61885;53.560;9.940;2023-02-07T08:02:48;-1.00;99.90
4673;DHT22;61885;53.560;9.940;2023-02-07T08:05:18;-0.90;99.90
4673;DHT22;61885;53.560;9.940;2023-02-07T08:07:50;-0.90;99.90
4673;DHT22;61885;53.560;9.940;2023-02-07T08:10:23;-0.80;99.90
4673;DHT22;61885;53.560;9.940;2023-02-07T08:12:54;-0.70;99.90
4673;DHT22;61885;53.560;9.940;2023-02-07T08:15:26;-0.70;99.90
4673;DHT22;61885;53.560;9.940;2023-02-07T08:17:56;-0.70;99.90
4673;DHT22;61885;53.560;9.940;2023-02-07T08:20:26;-0.70;99.90
4673;DHT22;61885;53.560;9.940;2023-02-07T08:22:56;-0.60;99.90
4673;DHT22;61885;53.560;9.940;2023-02-07T08:25:28;-0.60;99.90
4673;DHT22;61885;53.560;9.940;2023-02-07T08:27:58;-0.60;99.90
4673;DHT22;61885;53.560;9.940;2023-02-07T08:30:28;-0.60;99.90
4673;DHT22;61885;53.560;9.940;2023-02-07T08:32:57;-0.70;99.90
4673;DHT22;61885;53.560;9.940;2023-02-07T08:35:27;-0.70;99.90
4673;DHT22;61885;53.560;9.940;2023-02-07T08:37:57;-0.60;99.90
4673;DHT22;61885;53.560;9.940;2023-02-07T08:40:30;-0.60;99.90
4673;DHT22;61885;53.560;9.940;2023-02-07T08:42:59;-0.50;99.90
4673;DHT22;61885;53.560;9.940;2023-02-07T08:45:32;-0.50;99.90
4673;DHT22;61885;53.560;9.940;2023-02-07T08:48:02;-0.50;99.90
4673;DHT22;61885;53.560;9.940;2023-02-07T08:50:33;-0.40;99.90
4673;DHT22;61885;53.560;9.940;2023-02-07T08:53:03;-0.40;99.90
4673;DHT22;61885;53.560;9.940;2023-02-07T08:55:35;-0.40;99.90
4673;DHT22;61885;53.560;9.940;2023-02-07T08:58:05;-0.50;99.90
4673;DHT22;61885;53.560;9.940;2023-02-07T09:00:35;-0.50;99.90
4673;DHT22;61885;53.560;9.940;2023-02-07T09:03:05;-0.50;99.90
4673;DHT22;61885;53.560;9.940;2023-02-07T09:05:36;-0.60;99.90
4673;DHT22;61885;53.560;9.940;2023-02-07T09:08:05;-0.70;99.90
4673;DHT22;61885;53.560;9.940;2023-02-07T09:10:38;-0.60;99.90
4673;DHT22;61885;53.560;9.940;2023-02-07T09:13:11;-0.60;99.90
4673;DHT22;61885;53.560;9.940;2023-02-07T09:15:40;-0.50;99.90
4673;DHT22;61885;53.560;9.940;2023-02-07T09:18:18;-0.60;99.90
4673;DHT22;61885;53.560;9.940;2023-02-07T09:20:48;-0.50;99.90
4673;DHT22;61885;53.560;9.940;2023-02-07T09:23:19;-0.60;99.90
4673;DHT22;61885;53.560;9.940;2023-02-07T09:26:01;-0.50;99.90
4673;DHT22;61885;53.560;9.940;2023-02-07T09:28:32;-0.50;99.90
4673;DHT22;61885;53.560;9.940;2023-02-07T09:31:07;-0.50;99.90
4673;DHT22;61885;53.560;9.940;2023-02-07T09:33:37;-0.50;99.90
4673;DHT22;61885;53.560;9.940;2023-02-07T09:36:28;-0.40;99.90
4673;DHT22;61885;53.560;9.940;2023-02-07T09:38:59;-0.30;99.90
4673;DHT22;61885;53.560;9.940;2023-02-07T09:41:38;-0.20;99.90
4673;DHT22;61885;53.560;9.940;2023-02-07T09:44:14;0.00;99.90
4673;DHT22;61885;53.560;9.940;2023-02-07T09:46:51;0.00;99.90
4673;DHT22;61885;53.560;9.940;2023-02-07T09:49:32;0.10;99.90
4673;DHT22;61885;53.560;9.940;2023-02-07T09:52:06;0.10;99.90
4673;DHT22;61885;53.560;9.940;2023-02-07T09:54:44;0.10;99.90
4673;DHT22;61885;53.560;9.940;2023-02-07T09:57:22;0.10;99.90
4673;DHT22;61885;53.560;9.940;2023-02-07T09:59:57;0.10;99.90
4673;DHT22;61885;53.560;9.940;2023-02-07T10:02:31;0.10;99.90
4673;DHT22;61885;53.560;9.940;2023-02-07T10:05:04;0.20;99.90
4673;DHT22;61885;53.560;9.940;2023-02-07T10:07:36;0.20;99.90
4673;DHT22;61885;53.560;9.940;2023-02-07T10:10:13;0.20;99.90
4673;DHT22;61885;53.560;9.940;2023-02-07T10:13:05;0.20;99.90
4673;DHT22;61885;53.560;9.940;2023-02-07T10:15:47;0.10;99.90
4673;DHT22;61885;53.560;9.940;2023-02-07T10:18:31;0.10;99.90
4673;DHT22;61885;53.560;9.940;2023-02-07T10:21:11;0.00;99.90
4673;DHT22;61885;53.560;9.940;2023-02-07T10:24:06;0.00;99.90
4673;DHT22;61885;53.560;9.940;2023-02-07T10:26:44;0.00;99.90
4673;DHT22;61885;53.560;9.940;2023-02-07T10:32:18;0.00;99.90
4673;DHT22;61885;53.560;9.940;2023-02-07T10:34:54;0.00;99.90
4673;DHT22;61885;53.560;9.940;2023-02-07T10:37:29;0.10;99.90
4673;DHT22;61885;53.560;9.940;2023-02-07T10:40:02;0.20;99.90
4673;DHT22;61885;53.560;9.940;2023-02-07T10:42:41;0.10;99.90
4673;DHT22;61885;53.560;9.940;2023-02-07T10:45:16;0.10;99.90
4673;DHT22;61885;53.560;9.940;2023-02-07T10:47:52;-0.10;99.90
4673;DHT22;61885;53.560;9.940;2023-02-07T10:50:25;-0.10;99.90
4673;DHT22;61885;53.560;9.940;2023-02-07T10:52:58;0.30;99.90
4673;DHT22;61885;53.560;9.940;2023-02-07T10:55:37;0.70;99.90
4673;DHT22;61885;53.560;9.940;2023-02-07T10:58:14;1.00;99.90
4673;DHT22;61885;53.560;9.940;2023-02-07T11:00:50;1.10;99.90
4673;DHT22;61885;53.560;9.940;2023-02-07T11:03:25;1.00;99.90
4673;DHT22;61885;53.560;9.940;2023-02-07T11:06:00;0.80;99.90
4673;DHT22;61885;53.560;9.940;2023-02-07T11:08:35;0.40;99.90
4673;DHT22;61885;53.560;9.940;2023-02-07T11:11:26;0.30;99.90
4673;DHT22;61885;53.560;9.940;2023-02-07T11:14:02;0.30;99.90
4673;DHT22;61885;53.560;9.940;2023-02-07T11:16:35;0.20;99.90
4673;DHT22;61885;53.560;9.940;2023-02-07T11:19:05;0.20;99.90
4673;DHT22;61885;53.560;9.940;2023-02-07T11:21:39;0.30;99.90
4673;DHT22;61885;53.560;9.940;2023-02-07T11:24:13;0.30;99.90
4673;DHT22;61885;53.560;9.940;2023-02-07T11:26:53;0.30;99.90
4673;DHT22;61885;53.560;9.940;2023-02-07T11:29:26;0.40;99.90
4673;DHT22;61885;53.560;9.940;2023-02-07T11:32:02;0.50;99.90
4673;DHT22;61885;53.560;9.940;2023-02-07T11:34:43;0.40;99.90
4673;DHT22;61885;53.560;9.940;2023-02-07T11:37:20;0.40;99.90
4673;DHT22;61885;53.560;9.940;2023-02-07T11:39:53;0.50;99.90
4673;DHT22;61885;53.560;9.940;2023-02-07T11:42:29;0.70;99.90
4673;DHT22;61885;53.560;9.940;2023-02-07T11:45:04;0.70;99.90
4673;DHT22;61885;53.560;9.940;2023-02-07T11:47:39;0.90;99.90
4673;DHT22;61885;53.560;9.940;2023-02-07T11:50:21;0.80;99.90
4673;DHT22;61885;53.560;9.940;2023-02-07T11:52:54;0.70;99.90
4673;DHT22;61885;53.560;9.940;2023-02-07T11:55:27;0.70;99.90
4673;DHT22;61885;53.560;9.940;2023-02-07T11:58:08;0.70;99.90
4673;DHT22;61885;53.560;9.940;2023-02-07T12:00:40;0.80;99.90
4673;DHT22;61885;53.560;9.940;2023-02-07T12:03:21;0.90;99.90
4673;DHT22;61885;53.560;9.940;2023-02-07T12:05:54;1.00;99.90
4673;DHT22;61885;53.560;9.940;2023-02-07T12:08:28;1.00;99.90
4673;DHT22;61885;53.560;9.940;2023-02-07T12:11:03;1.00;99.90
4673;DHT22;61885;53.560;9.940;2023-02-07T12:13:38;0.90;99.90
4673;DHT22;61885;53.560;9.940;2023-02-07T12:16:16;1.20;99.90
4673;DHT22;61885;53.560;9.940;2023-02-07T12:18:52;1.10;99.90
4673;DHT22;61885;53.560;9.940;2023-02-07T12:21:30;0.90;99.90
4673;DHT22;61885;53.560;9.940;2023-02-07T12:24:07;1.00;99.90
4673;DHT22;61885;53.560;9.940;2023-02-07T12:26:43;1.00;99.90
4673;DHT22;61885;53.560;9.940;2023-02-07T12:29:25;1.10;99.90
4673;DHT22;61885;53.560;9.940;2023-02-07T12:32:03;1.00;99.90
4673;DHT22;61885;53.560;9.940;2023-02-07T12:34:42;1.10;99.90
4673;DHT22;61885;53.560;9.940;2023-02-07T12:37:24;1.30;99.90
4673;DHT22;61885;53.560;9.940;2023-02-07T12:40:02;1.40;99.90
4673;DHT22;61885;53.560;9.940;2023-02-07T12:42:37;1.90;99.90
4673;DHT22;61885;53.560;9.940;2023-02-07T12:45:14;1.50;99.90
4673;DHT22;61885;53.560;9.940;2023-02-07T12:47:52;1.50;99.90
4673;DHT22;61885;53.560;9.940;2023-02-07T12:50:45;1.70;99.90
4673;DHT22;61885;53.560;9.940;2023-02-07T12:53:39;1.70;99.90
4673;DHT22;61885;53.560;9.940;2023-02-07T12:56:27;1.70;99.90
4673;DHT22;61885;53.560;9.940;2023-02-07T12:59:11;1.70;99.90
4673;DHT22;61885;53.560;9.940;2023-02-07T13:01:46;1.80;99.90
4673;DHT22;61885;53.560;9.940;2023-02-07T13:04:40;1.60;99.90
4673;DHT22;61885;53.560;9.940;2023-02-07T13:07:33;1.70;99.90
4673;DHT22;61885;53.560;9.940;2023-02-07T13:10:15;1.70;99.90
4673;DHT22;61885;53.560;9.940;2023-02-07T13:12:52;1.90;99.90
4673;DHT22;61885;53.560;9.940;2023-02-07T13:15:35;2.00;99.90
4673;DHT22;61885;53.560;9.940;2023-02-07T13:18:10;2.10;99.90
4673;DHT22;61885;53.560;9.940;2023-02-07T13:20:53;2.00;99.90
4673;DHT22;61885;53.560;9.940;2023-02-07T13:23:30;2.10;99.90
4673;DHT22;61885;53.560;9.940;2023-02-07T13:26:10;2.10;99.90
4673;DHT22;61885;53.560;9.940;2023-02-07T13:28:44;2.10;99.90
4673;DHT22;61885;53.560;9.940;2023-02-07T13:31:18;2.20;99.90
4673;DHT22;61885;53.560;9.940;2023-02-07T13:33:49;2.20;99.90
4673;DHT22;61885;53.560;9.940;2023-02-07T13:36:29;2.20;99.90
4673;DHT22;61885;53.560;9.940;2023-02-07T13:39:17;2.30;99.90
4673;DHT22;61885;53.560;9.940;2023-02-07T13:41:58;2.30;99.90
4673;DHT22;61885;53.560;9.940;2023-02-07T13:44:38;2.10;99.90
4673;DHT22;61885;53.560;9.940;2023-02-07T13:47:31;2.30;99.90
4673;DHT22;61885;53.560;9.940;2023-02-07T13:50:14;2.30;99.90
4673;DHT22;61885;53.560;9.940;2023-02-07T13:52:51;2.40;99.90
4673;DHT22;61885;53.560;9.940;2023-02-07T13:55:33;2.50;99.90
4673;DHT22;61885;53.560;9.940;2023-02-07T14:01:32;2.50;99.90
4673;DHT22;61885;53.560;9.940;2023-02-07T14:04:05;2.50;99.90
4673;DHT22;61885;53.560;9.940;2023-02-07T14:06:37;2.50;99.90
4673;DHT22;61885;53.560;9.940;2023-02-07T14:09:15;2.60;99.90
4673;DHT22;61885;53.560;9.940;2023-02-07T14:11:56;2.70;99.90
4673;DHT22;61885;53.560;9.940;2023-02-07T14:14:27;2.70;99.90
4673;DHT22;61885;53.560;9.940;2023-02-07T14:17:00;2.80;99.90
4673;DHT22;61885;53.560;9.940;2023-02-07T14:19:48;2.80;99.90
4673;DHT22;61885;53.560;9.940;2023-02-07T14:22:24;2.80;99.90
4673;DHT22;61885;53.560;9.940;2023-02-07T14:25:22;2.90;99.90
4673;DHT22;61885;53.560;9.940;2023-02-07T14:28:18;3.00;99.90
4673;DHT22;61885;53.560;9.940;2023-02-07T14:31:10;3.00;99.90
4673;DHT22;61885;53.560;9.940;2023-02-07T14:34:12;3.00;99.90
4673;DHT22;61885;53.560;9.940;2023-02-07T14:36:43;3.10;99.90
4673;DHT22;61885;53.560;9.940;2023-02-07T14:39:26;3.10;99.90
4673;DHT22;61885;53.560;9.940;2023-02-07T14:42:09;3.10;99.90
4673;DHT22;61885;53.560;9.940;2023-02-07T14:44:41;3.20;99.90
4673;DHT22;61885;53.560;9.940;2023-02-07T14:47:19;3.20;99.90
4673;DHT22;61885;53.560;9.940;2023-02-07T14:49:54;3.20;99.90
4673;DHT22;61885;53.560;9.940;2023-02-07T14:52:27;3.20;99.90
4673;DHT22;61885;53.560;9.940;2023-02-07T14:55:00;3.20;99.90
4673;DHT22;61885;53.560;9.940;2023-02-07T14:57:37;3.30;99.90
4673;DHT22;61885;53.560;9.940;2023-02-07T15:00:30;3.20;99.90
4673;DHT22;61885;53.560;9.940;2023-02-07T15:03:07;3.20;99.90
4673;DHT22;61885;53.560;9.940;2023-02-07T15:05:49;3.10;99.90
4673;DHT22;61885;53.560;9.940;2023-02-07T15:08:24;3.10;99.90
4673;DHT22;61885;53.560;9.940;2023-02-07T15:10:57;3.10;99.90
4673;DHT22;61885;53.560;9.940;2023-02-07T15:13:35;3.10;99.90
4673;DHT22;61885;53.560;9.940;2023-02-07T15:16:14;3.10;99.90
4673;DHT22;61885;53.560;9.940;2023-02-07T15:18:51;3.10;99.90
4673;DHT22;61885;53.560;9.940;2023-02-07T15:21:28;3.20;99.90
4673;DHT22;61885;53.560;9.940;2023-02-07T15:24:04;3.10;99.90
4673;DHT22;61885;53.560;9.940;2023-02-07T15:26:36;3.10;99.90
4673;DHT22;61885;53.560;9.940;2023-02-07T15:29:20;3.10;99.90
4673;DHT22;61885;53.560;9.940;2023-02-07T15:31:50;3.00;99.90
4673;DHT22;61885;53.560;9.940;2023-02-07T15:34:23;3.00;99.90
4673;DHT22;61885;53.560;9.940;2023-02-07T15:37:11;3.00;99.90
4673;DHT22;61885;53.560;9.940;2023-02-07T15:39:41;2.90;99.90
4673;DHT22;61885;53.560;9.940;2023-02-07T15:42:16;2.90;99.90
4673;DHT22;61885;53.560;9.940;2023-02-07T15:44:48;2.90;99.90
4673;DHT22;61885;53.560;9.940;2023-02-07T15:47:33;2.90;99.90
4673;DHT22;61885;53.560;9.940;2023-02-07T15:50:18;3.00;99.90
4673;DHT22;61885;53.560;9.940;2023-02-07T15:52:53;2.90;99.90
4673;DHT22;61885;53.560;9.940;2023-02-07T15:55:28;3.00;99.90
4673;DHT22;61885;53.560;9.940;2023-02-07T15:58:00;2.90;99.90
4673;DHT22;61885;53.560;9.940;2023-02-07T16:00:36;2.80;99.90
4673;DHT22;61885;53.560;9.940;2023-02-07T16:03:15;3.20;99.90
4673;DHT22;61885;53.560;9.940;2023-02-07T16:05:56;2.60;99.90
4673;DHT22;61885;53.560;9.940;2023-02-07T16:08:36;2.60;99.90
4673;DHT22;61885;53.560;9.940;2023-02-07T16:11:31;2.50;99.90
4673;DHT22;61885;53.560;9.940;2023-02-07T16:14:08;2.40;99.90
4673;DHT22;61885;53.560;9.940;2023-02-07T16:16:47;2.40;99.90
4673;DHT22;61885;53.560;9.940;2023-02-07T16:19:23;2.30;99.90
4673;DHT22;61885;53.560;9.940;2023-02-07T16:22:00;2.20;99.90
4673;DHT22;61885;53.560;9.940;2023-02-07T16:24:35;2.10;99.90
4673;DHT22;61885;53.560;9.940;2023-02-07T16:27:06;2.10;99.90
4673;DHT22;61885;53.560;9.940;2023-02-07T16:29:37;2.00;99.90
4673;DHT22;61885;53.560;9.940;2023-02-07T16:32:08;2.00;99.90
4673;DHT22;61885;53.560;9.940;2023-02-07T16:34:42;2.00;99.90
4673;DHT22;61885;53.560;9.940;2023-02-07T16:37:12;1.90;99.90
4673;DHT22;61885;53.560;9.940;2023-02-07T16:39:45;1.90;99.90
4673;DHT22;61885;53.560;9.940;2023-02-07T16:42:28;1.90;99.90
4673;DHT22;61885;53.560;9.940;2023-02-07T16:45:19;1.80;99.90
4673;DHT22;61885;53.560;9.940;2023-02-07T16:48:22;1.70;99.90
4673;DHT22;61885;53.560;9.940;2023-02-07T16:50:57;1.50;99.90
4673;DHT22;61885;53.560;9.940;2023-02-07T16:53:41;1.70;99.90
4673;DHT22;61885;53.560;9.940;2023-02-07T16:56:22;1.40;99.90
4673;DHT22;61885;53.560;9.940;2023-02-07T16:59:09;1.40;99.90
4673;DHT22;61885;53.560;9.940;2023-02-07T17:01:40;1.30;99.90